createdAt,value
2017-08-26T00:00:46.130Z,11.13
2017-08-26T00:06:10.838Z,11.07
2017-08-26T00:08:41.173Z,11.90
2017-08-26T00:11:10.970Z,10.83
2017-08-26T00:13:41.297Z,12.50
2017-08-26T00:16:10.873Z,11.43
2017-08-26T00:18:47.190Z,10.90
2017-08-26T00:21:18.276Z,10.77
2017-08-26T00:23:47.875Z,11.87
2017-08-26T00:26:17.477Z,12.20
2017-08-26T00:28:47.464Z,11.97
2017-08-26T00:31:17.713Z,12.00
2017-08-26T00:33:48.037Z,10.73
2017-08-26T00:36:17.678Z,12.87
2017-08-26T00:41:42.070Z,12.60
2017-08-26T00:44:13.127Z,10.90
2017-08-26T00:46:44.448Z,12.00
2017-08-26T00:49:14.047Z,12.40
2017-08-26T00:51:46.938Z,11.77
2017-08-26T00:54:16.531Z,11.43
2017-08-26T00:56:46.196Z,13.00
2017-08-26T00:59:16.531Z,12.83
2017-08-26T01:01:47.326Z,12.73
2017-08-26T01:07:17.613Z,11.27
2017-08-26T01:09:48.089Z,12.33
2017-08-26T01:12:18.810Z,12.63
2017-08-26T01:14:49.013Z,12.57
2017-08-26T01:17:18.686Z,13.90
2017-08-26T01:19:48.756Z,13.30
2017-08-26T01:22:18.353Z,12.50
2017-08-26T01:24:47.984Z,11.73
2017-08-26T01:27:18.216Z,12.63
2017-08-26T01:29:48.529Z,12.83
2017-08-26T01:32:18.736Z,13.10
2017-08-26T01:34:49.311Z,12.70
2017-08-26T01:37:19.526Z,12.83
2017-08-26T01:39:49.981Z,13.00
2017-08-26T01:42:20.896Z,13.37
2017-08-26T01:44:51.453Z,11.37
2017-08-26T01:50:16.571Z,13.50
2017-08-26T01:52:46.302Z,13.10
2017-08-26T01:55:15.882Z,11.97
2017-08-26T01:57:46.017Z,12.80
2017-08-26T02:00:15.606Z,13.10
2017-08-26T02:02:46.328Z,12.20
2017-08-26T02:05:16.070Z,13.30
2017-08-26T02:07:46.397Z,13.83
2017-08-26T02:13:11.647Z,15.00
2017-08-26T02:15:41.231Z,13.67
2017-08-26T02:18:12.205Z,12.47
2017-08-26T02:20:42.136Z,13.27
2017-08-26T02:23:12.823Z,17.37
2017-08-26T02:25:43.150Z,16.00
2017-08-26T02:28:13.345Z,18.10
2017-08-26T02:30:49.061Z,17.27
2017-08-26T02:33:19.389Z,13.97
2017-08-26T02:35:50.323Z,14.13
2017-08-26T02:41:15.089Z,12.67
2017-08-26T02:43:44.797Z,14.70
2017-08-26T02:46:15.118Z,13.70
2017-08-26T02:48:45.260Z,15.00
2017-08-26T02:51:14.854Z,14.17
2017-08-26T02:53:44.762Z,18.40
2017-08-26T02:56:14.418Z,13.90
2017-08-26T02:58:48.053Z,15.53
2017-08-26T03:01:17.880Z,15.27
2017-08-26T03:03:48.958Z,14.63
2017-08-26T03:09:13.783Z,15.97
2017-08-26T03:11:44.117Z,13.40
2017-08-26T03:14:14.233Z,13.40
2017-08-26T03:16:44.953Z,14.73
2017-08-26T03:19:15.093Z,15.00
2017-08-26T03:21:44.727Z,14.80
2017-08-26T03:24:14.880Z,14.70
2017-08-26T03:26:48.540Z,15.00
2017-08-26T03:29:18.258Z,16.33
2017-08-26T03:31:48.956Z,15.60
2017-08-26T03:37:14.441Z,15.40
2017-08-26T03:39:44.047Z,15.70
2017-08-26T03:42:14.514Z,18.20
2017-08-26T03:44:44.098Z,16.87
2017-08-26T03:47:14.187Z,17.80
2017-08-26T03:49:43.967Z,14.63
2017-08-26T03:52:13.931Z,14.03
2017-08-26T03:54:47.066Z,17.40
2017-08-26T03:57:17.284Z,17.00
2017-08-26T03:59:47.034Z,15.50
2017-08-26T04:05:11.865Z,14.77
2017-08-26T04:07:42.317Z,16.00
2017-08-26T04:10:12.818Z,15.47
2017-08-26T04:12:43.273Z,15.60
2017-08-26T04:15:13.193Z,15.70
2017-08-26T04:17:43.150Z,15.93
2017-08-26T04:20:12.882Z,16.10
2017-08-26T04:22:49.072Z,15.23
2017-08-26T04:25:19.241Z,14.90
2017-08-26T04:27:50.301Z,14.87
2017-08-26T04:33:15.515Z,14.93
2017-08-26T04:35:45.582Z,15.53
2017-08-26T04:38:16.550Z,14.83
2017-08-26T04:40:46.146Z,15.37
2017-08-26T04:43:15.795Z,15.57
2017-08-26T04:45:45.526Z,16.83
2017-08-26T04:48:15.251Z,17.20
2017-08-26T04:50:45.041Z,15.97
2017-08-26T04:53:14.779Z,16.50
2017-08-26T04:55:45.237Z,18.57
2017-08-26T04:58:15.529Z,15.83
2017-08-26T05:00:45.433Z,15.60
2017-08-26T05:03:15.620Z,16.70
2017-08-26T05:05:49.681Z,16.20
2017-08-26T05:08:19.665Z,16.90
2017-08-26T05:10:49.288Z,16.50
2017-08-26T05:13:19.708Z,15.80
2017-08-26T05:15:50.807Z,15.67
2017-08-26T05:18:20.549Z,16.03
2017-08-26T05:20:50.157Z,15.30
2017-08-26T05:23:21.107Z,18.30
2017-08-26T05:25:51.662Z,16.90
2017-08-26T05:28:21.633Z,22.30
2017-08-26T05:30:51.706Z,15.63
2017-08-26T05:33:21.497Z,15.57
2017-08-26T05:35:51.608Z,17.43
2017-08-26T05:38:22.708Z,20.20
2017-08-26T05:40:52.428Z,15.03
2017-08-26T05:43:23.355Z,16.23
2017-08-26T05:45:53.866Z,17.10
2017-08-26T05:48:23.515Z,21.43
2017-08-26T05:50:53.091Z,20.20
2017-08-26T05:56:37.645Z,16.27
2017-08-26T06:02:02.334Z,16.83
2017-08-26T06:04:46.677Z,15.83
2017-08-26T06:18:56.205Z,17.00
2017-08-26T06:21:46.263Z,16.50
2017-08-26T06:35:55.091Z,16.87
2017-08-26T06:38:47.544Z,21.10
2017-08-26T06:41:17.581Z,18.27
2017-08-26T06:43:47.149Z,17.00
2017-08-26T06:52:22.136Z,16.60
2017-08-26T07:20:48.112Z,25.70
2017-08-26T07:29:08.843Z,25.97
2017-08-26T07:31:38.614Z,23.80
2017-08-26T07:37:03.376Z,24.40
2017-08-26T07:39:33.005Z,27.90
2017-08-26T07:42:03.217Z,22.33
2017-08-26T07:44:33.006Z,27.30
2017-08-26T07:47:02.596Z,29.00
2017-08-26T07:49:46.538Z,30.83
2017-08-26T07:52:16.222Z,30.37
2017-08-26T07:54:45.861Z,33.50
2017-08-26T07:57:15.777Z,25.80
2017-08-26T07:59:47.391Z,30.73
2017-08-26T08:02:17.720Z,33.07
2017-08-26T08:04:48.121Z,25.67
2017-08-26T08:13:07.991Z,26.50
2017-08-26T08:15:37.584Z,18.27
2017-08-26T08:21:03.509Z,20.97
2017-08-26T08:27:08.281Z,20.17
2017-08-26T08:29:48.053Z,19.70
2017-08-26T08:35:12.663Z,19.90
2017-08-26T08:37:49.177Z,23.70
2017-08-26T08:43:13.817Z,20.63
2017-08-26T08:45:47.202Z,21.90
2017-08-26T08:57:00.717Z,18.40
2017-08-26T08:59:47.258Z,17.20
2017-08-26T09:05:12.748Z,15.63
2017-08-26T09:08:02.377Z,17.93
2017-08-26T09:10:46.849Z,18.37
2017-08-26T09:13:16.666Z,15.57
2017-08-26T09:15:48.696Z,15.40
2017-08-26T09:18:31.120Z,15.07
2017-08-26T09:23:56.613Z,16.00
2017-08-26T09:26:27.311Z,15.77
2017-08-26T09:28:57.340Z,15.30
2017-08-26T09:31:46.521Z,15.30
2017-08-26T09:37:11.591Z,15.10
2017-08-26T09:39:47.069Z,16.03
2017-08-26T09:42:16.946Z,15.63
2017-08-26T09:44:48.630Z,14.73
2017-08-26T09:53:07.852Z,16.27
2017-08-26T09:55:48.394Z,16.07
2017-08-26T09:58:26.377Z,14.87
2017-08-26T10:00:56.428Z,13.37
2017-08-26T10:03:45.978Z,13.40
2017-08-26T10:06:17.059Z,13.23
2017-08-26T10:08:47.699Z,13.40
2017-08-26T10:17:03.034Z,13.60
2017-08-26T10:19:46.878Z,12.30
2017-08-26T10:22:22.483Z,12.20
2017-08-26T10:24:52.415Z,11.67
2017-08-26T10:33:11.446Z,13.23
2017-08-26T10:35:41.224Z,12.43
2017-08-26T10:46:54.373Z,12.83
2017-08-26T10:49:46.908Z,12.00
2017-08-26T10:55:11.339Z,11.00
2017-08-26T10:57:48.009Z,12.73
2017-08-26T11:03:13.346Z,12.40
2017-08-26T11:05:42.992Z,12.70
2017-08-26T11:11:08.069Z,11.63
2017-08-26T11:13:47.457Z,12.77
2017-08-26T11:19:12.495Z,11.77
2017-08-26T11:21:43.305Z,13.57
2017-08-26T11:24:14.002Z,13.07
2017-08-26T11:26:43.651Z,12.60
2017-08-26T11:29:13.892Z,13.10
2017-08-26T11:34:48.919Z,14.03
2017-08-26T11:37:18.492Z,14.40
2017-08-26T11:39:48.069Z,13.23
2017-08-26T11:42:18.912Z,13.47
2017-08-26T11:44:48.528Z,12.30
2017-08-26T11:47:18.824Z,12.10
2017-08-26T11:49:49.311Z,14.53
2017-08-26T11:52:20.187Z,12.10
2017-08-26T11:54:50.546Z,12.73
2017-08-26T11:57:20.131Z,11.87
2017-08-26T11:59:50.406Z,12.83
2017-08-26T12:02:20.203Z,13.63
2017-08-26T12:04:50.538Z,14.00
2017-08-26T12:07:21.065Z,13.20
2017-08-26T12:09:50.661Z,13.73
2017-08-26T12:12:20.405Z,13.50
2017-08-26T12:14:50.027Z,12.43
2017-08-26T12:17:19.617Z,13.70
2017-08-26T12:19:49.193Z,13.00
2017-08-26T12:22:18.812Z,12.53
2017-08-26T12:24:48.449Z,13.47
2017-08-26T12:30:13.158Z,12.07
2017-08-26T12:32:42.733Z,14.10
2017-08-26T12:38:07.538Z,12.57
2017-08-26T12:40:37.104Z,13.73
2017-08-26T12:43:06.691Z,12.90
2017-08-26T12:45:36.318Z,12.77
2017-08-26T12:48:05.927Z,13.23
2017-08-26T12:50:35.506Z,11.40
2017-08-26T12:53:05.146Z,12.17
2017-08-26T12:55:34.730Z,12.10
2017-08-26T13:00:58.828Z,14.17
2017-08-26T13:03:28.401Z,13.10
2017-08-26T13:05:57.972Z,14.37
2017-08-26T13:08:27.601Z,14.17
2017-08-26T13:10:57.173Z,13.20
2017-08-26T13:13:26.746Z,13.40
2017-08-26T13:15:56.365Z,13.27
2017-08-26T13:18:25.937Z,12.80
2017-08-26T13:20:55.548Z,14.20
2017-08-26T13:23:25.197Z,14.00
2017-08-26T13:25:54.783Z,12.53
2017-08-26T13:28:25.111Z,12.60
2017-08-26T13:30:55.439Z,11.77
2017-08-26T13:33:25.062Z,12.30
2017-08-26T13:35:55.288Z,11.40
2017-08-26T13:38:25.127Z,13.87
2017-08-26T13:40:55.472Z,11.80
2017-08-26T13:43:25.045Z,13.10
2017-08-26T13:45:54.662Z,12.53
2017-08-26T13:48:24.423Z,13.50
2017-08-26T13:50:54.678Z,13.33
2017-08-26T13:53:24.862Z,14.70
2017-08-26T13:55:54.964Z,13.80
2017-08-26T13:58:24.553Z,15.60
2017-08-26T14:00:55.230Z,12.47
2017-08-26T14:06:19.948Z,14.30
2017-08-26T14:08:49.527Z,14.77
2017-08-26T14:11:19.778Z,14.53
2017-08-26T14:13:49.418Z,12.17
2017-08-26T14:16:19.012Z,13.97
2017-08-26T14:18:48.668Z,14.30
2017-08-26T14:24:13.464Z,25.33
2017-08-26T14:26:43.168Z,18.83
2017-08-26T14:29:12.746Z,16.27
2017-08-26T14:31:42.515Z,14.23
2017-08-26T14:37:07.464Z,17.30
2017-08-26T14:39:37.061Z,17.07
2017-08-26T14:42:07.340Z,17.97
2017-08-26T14:44:38.004Z,16.57
2017-08-26T14:47:20.346Z,16.30
2017-08-26T14:49:50.573Z,16.07
2017-08-26T14:52:20.172Z,15.80
2017-08-26T14:54:50.107Z,15.03
2017-08-26T14:57:20.293Z,16.03
2017-08-26T14:59:51.111Z,15.13
2017-08-26T15:02:20.972Z,16.43
2017-08-26T15:04:50.549Z,15.90
2017-08-26T15:07:21.334Z,14.47
2017-08-26T15:09:51.650Z,17.83
2017-08-26T15:12:21.982Z,13.20
2017-08-26T15:14:51.554Z,16.40
2017-08-26T15:20:16.022Z,17.50
2017-08-26T15:22:45.599Z,17.87
2017-08-26T15:25:15.390Z,16.63
2017-08-26T15:27:45.224Z,16.27
2017-08-26T15:30:15.433Z,17.60
2017-08-26T15:32:45.058Z,15.40
2017-08-26T15:35:14.637Z,14.77
2017-08-26T15:37:45.482Z,15.37
2017-08-26T15:40:16.559Z,15.97
2017-08-26T15:42:46.451Z,12.90
2017-08-26T15:45:16.026Z,13.63
2017-08-26T15:47:46.804Z,14.87
2017-08-26T15:50:16.383Z,14.37
2017-08-26T15:52:46.729Z,15.50
2017-08-26T15:55:16.366Z,16.93
2017-08-26T15:57:46.172Z,16.90
2017-08-26T16:00:16.414Z,16.00
2017-08-26T16:02:45.994Z,15.50
2017-08-26T16:05:15.569Z,14.93
2017-08-26T16:07:45.183Z,15.90
2017-08-26T16:10:14.764Z,14.23
2017-08-26T16:15:39.601Z,13.67
2017-08-26T16:18:10.181Z,13.63
2017-08-26T16:20:39.910Z,16.30
2017-08-26T16:23:09.973Z,14.80
2017-08-26T16:25:39.719Z,14.57
2017-08-26T16:31:03.731Z,14.90
2017-08-26T16:33:47.313Z,15.80
2017-08-26T16:47:57.426Z,14.43
2017-08-26T16:50:27.721Z,15.00
2017-08-26T16:52:58.003Z,15.37
2017-08-26T16:55:46.251Z,14.27
2017-08-26T17:01:11.210Z,14.30
2017-08-26T17:03:48.051Z,13.77
2017-08-26T17:09:12.974Z,14.63
2017-08-26T17:11:43.006Z,14.40
2017-08-26T17:14:12.641Z,15.13
2017-08-26T17:16:48.154Z,14.20
2017-08-26T17:19:18.613Z,14.60
2017-08-26T17:21:49.103Z,14.40
2017-08-26T17:27:13.612Z,15.33
2017-08-26T17:29:49.665Z,16.90
2017-08-26T17:35:14.799Z,14.60
2017-08-26T17:37:47.690Z,14.20
2017-08-26T17:40:18.206Z,14.30
2017-08-26T17:42:48.529Z,10.53
2017-08-26T17:45:18.508Z,9.03
2017-08-26T17:47:48.666Z,9.50
2017-08-26T18:01:58.142Z,9.40
2017-08-26T18:04:46.932Z,11.90
2017-08-26T18:07:16.572Z,13.63
2017-08-26T18:09:46.808Z,13.47
2017-08-26T18:12:16.439Z,9.27
2017-08-26T18:14:49.048Z,17.37
2017-08-26T18:17:18.675Z,13.50
2017-08-26T18:19:48.256Z,12.60
2017-08-26T18:25:12.496Z,11.93
2017-08-26T18:27:47.920Z,13.97
2017-08-26T18:33:12.967Z,14.60
2017-08-26T18:35:48.972Z,15.97
2017-08-26T18:41:13.326Z,15.90
2017-08-26T18:43:48.651Z,14.07
2017-08-26T18:49:13.547Z,20.17
2017-08-26T18:51:49.507Z,20.23
2017-08-26T18:57:13.663Z,17.60
2017-08-26T18:59:48.907Z,14.20
2017-08-26T19:05:13.006Z,17.30
2017-08-26T19:07:48.536Z,13.87
2017-08-26T19:13:12.794Z,12.50
2017-08-26T19:15:48.481Z,12.30
2017-08-26T19:21:14.118Z,12.70
2017-08-26T19:23:50.688Z,15.40
2017-08-26T19:29:15.459Z,15.00
2017-08-26T19:31:45.219Z,12.13
2017-08-26T19:37:09.281Z,11.77
2017-08-26T19:39:47.164Z,12.83
2017-08-26T19:45:11.490Z,14.63
2017-08-26T19:47:48.536Z,12.50
2017-08-26T19:53:18.738Z,29.00
2017-08-26T19:55:48.345Z,27.47
2017-08-26T20:01:13.277Z,17.47
2017-08-26T20:03:45.806Z,26.93
2017-08-26T20:09:11.331Z,18.73
2017-08-26T20:11:47.722Z,13.90
2017-08-26T20:17:13.096Z,20.77
2017-08-26T20:19:43.362Z,25.90
2017-08-26T20:25:07.331Z,25.30
2017-08-26T20:27:49.457Z,14.83
2017-08-26T20:33:15.381Z,13.53
2017-08-26T20:35:45.519Z,15.63
2017-08-26T20:38:15.380Z,15.00
2017-08-26T20:40:45.779Z,14.87
2017-08-26T20:43:16.037Z,15.43
2017-08-26T20:45:46.259Z,20.63
2017-08-26T20:48:16.363Z,16.70
2017-08-26T20:50:45.952Z,17.77
2017-08-26T20:56:10.794Z,16.07
2017-08-26T20:58:41.385Z,16.20
2017-08-26T21:01:12.685Z,14.73
2017-08-26T21:03:42.955Z,15.60
2017-08-26T21:06:12.895Z,15.33
2017-08-26T21:08:42.498Z,16.23
2017-08-26T21:11:12.421Z,15.73
2017-08-26T21:13:42.652Z,15.53
2017-08-26T21:16:12.898Z,15.70
2017-08-26T21:18:43.137Z,16.43
2017-08-26T21:21:12.729Z,15.60
2017-08-26T21:23:43.073Z,16.77
2017-08-26T21:26:13.232Z,15.03
2017-08-26T21:28:42.818Z,15.93
2017-08-26T21:31:13.076Z,16.70
2017-08-26T21:33:48.298Z,15.50
2017-08-26T21:36:19.294Z,15.40
2017-08-26T21:38:49.276Z,16.03
2017-08-26T21:41:19.630Z,14.87
2017-08-26T21:43:49.840Z,15.00
2017-08-26T21:46:20.719Z,24.10
2017-08-26T21:48:50.521Z,28.37
2017-08-26T21:54:15.074Z,29.67
2017-08-26T21:56:45.770Z,16.53
2017-08-26T21:59:16.211Z,16.20
2017-08-26T22:01:45.812Z,28.70
2017-08-26T22:04:16.660Z,27.63
2017-08-26T22:06:46.859Z,19.30
2017-08-26T22:09:17.256Z,17.70
2017-08-26T22:11:47.397Z,18.43
2017-08-26T22:14:17.642Z,17.80
2017-08-26T22:16:47.235Z,17.23
2017-08-26T22:19:18.228Z,17.20
2017-08-26T22:21:48.905Z,18.17
2017-08-26T22:24:19.390Z,16.50
2017-08-26T22:26:49.854Z,18.70
2017-08-26T22:29:19.992Z,18.63
2017-08-26T22:31:50.282Z,17.90
2017-08-26T22:34:20.539Z,17.63
2017-08-26T22:36:50.347Z,18.10
2017-08-26T22:39:20.947Z,19.77
2017-08-26T22:44:45.229Z,18.83
2017-08-26T22:47:14.816Z,20.27
2017-08-26T22:49:44.943Z,18.00
2017-08-26T22:52:16.009Z,20.60
2017-08-26T22:54:46.512Z,19.73
2017-08-26T22:57:16.693Z,27.47
2017-08-26T22:59:49.045Z,21.83
2017-08-26T23:02:19.302Z,21.40
2017-08-26T23:04:48.878Z,20.70
2017-08-26T23:07:19.407Z,21.90
2017-08-26T23:09:49.439Z,20.30
2017-08-26T23:12:19.978Z,18.07
2017-08-26T23:14:50.898Z,19.70
2017-08-26T23:20:15.430Z,20.23
2017-08-26T23:22:45.725Z,19.37
2017-08-26T23:25:16.341Z,21.30
2017-08-26T23:38:05.964Z,22.00
2017-08-26T23:40:48.176Z,22.70
2017-08-26T23:46:13.745Z,21.37
2017-08-26T23:48:44.813Z,20.27
2017-08-26T23:51:15.264Z,23.90
2017-08-26T23:53:48.776Z,20.50
2017-08-26T23:56:19.086Z,21.13
2017-08-26T23:58:49.026Z,34.17
